Time;durP1;ratioP1;P1;durP2;ratioP2;P2;SDS_P1;SDS_P2;PMS_P1;PMS_P2;Temp;Humidity;BMP_temperature;BMP_pressure;BME280_temperature;BME280_humidity;BME280_pressure;Samples;Min_cycle;Max_cycle;Signal;HPM_P1;HPM_P2
2023/07/25 00:00:40;;;;;;;;;;;;;;;16.63;54.48;96273.22;6295608;28;20027;-70
2023/07/25 00:03:45;;;;;;;;;;;;;;;16.57;54.47;96279.13;6295221;28;19924;-70
2023/07/25 00:06:48;;;;;;;;;;;;;;;16.60;54.28;96287.63;6295044;28;19925;-71
2023/07/25 00:09:52;;;;;;;;;;;;;;;16.58;55.22;96286.09;6277245;28;19939;-70
2023/07/25 00:12:55;;;;;;;;;;;;;;;16.55;55.35;96287.25;6294643;28;19924;-70
2023/07/25 00:15:56;;;;;;;;;;;;;;;16.59;55.14;96293.94;6276774;28;19963;-71
2023/07/25 00:18:57;;;;;;;;;;;;;;;16.59;54.81;96293.94;6294841;28;19920;-70
2023/07/25 00:22:02;;;;;;;;;;;;;;;16.64;54.14;96295.28;6294864;28;19924;-70
2023/07/25 00:25:04;;;;;;;;;;;;;;;16.67;54.05;96297.66;6295111;28;19927;-70
2023/07/25 00:28:07;;;;;;;;;;;;;;;16.71;53.83;96296.38;6294677;28;19924;-70
2023/07/25 00:31:08;;;;;;;;;;;;;;;16.74;53.99;96296.91;6294809;28;19931;-70
2023/07/25 00:34:13;;;;;;;;;;;;;;;16.72;53.83;96292.72;6277300;28;19924;-70
2023/07/25 00:37:17;;;;;;;;;;;;;;;16.69;54.13;96293.03;6277203;28;19928;-71
2023/07/25 00:40:25;;;;;;;;;;;;;;;16.70;54.10;96294.69;6276633;28;19924;-70
2023/07/25 00:43:28;;;;;;;;;;;;;;;16.72;54.18;96295.38;6294795;28;19924;-71
2023/07/25 00:46:29;;;;;;;;;;;;;;;16.76;54.38;96294.97;6294603;28;19924;-70
2023/07/25 00:49:31;;;;;;;;;;;;;;;16.76;54.66;96299.41;6294638;28;20313;-69
2023/07/25 00:52:32;;;;;;;;;;;;;;;16.81;54.06;96307.78;6276662;28;19924;-71
2023/07/25 00:55:35;;;;;;;;;;;;;;;16.88;54.18;96302.69;6294698;28;19925;-71
2023/07/25 00:58:37;;;;;;;;;;;;;;;16.89;55.01;96307.84;6294254;28;19929;-70
2023/07/25 01:01:40;;;;;;;;;;;;;;;16.95;54.89;96306.41;6294263;28;20015;-71
2023/07/25 01:04:46;;;;;;;;;;;;;;;16.99;55.33;96305.13;6294591;28;19925;-71
2023/07/25 01:07:51;;;;;;;;;;;;;;;17.01;55.10;96304.00;6295454;28;20345;-70
2023/07/25 01:10:53;;;;;;;;;;;;;;;17.04;55.70;96306.34;6281329;28;19924;-71
2023/07/25 01:13:56;;;;;;;;;;;;;;;17.06;55.85;96307.00;6298741;28;19929;-70
2023/07/25 01:17:14;;;;;;;;;;;;;;;17.06;55.94;96306.16;6298959;28;19931;-70
2023/07/25 01:20:15;;;;;;;;;;;;;;;17.06;56.08;96309.66;6298146;28;20301;-71
2023/07/25 01:23:17;;;;;;;;;;;;;;;17.05;56.28;96308.00;6298508;28;19925;-70
2023/07/25 01:26:22;;;;;;;;;;;;;;;17.09;56.18;96310.34;6298484;28;20081;-70
2023/07/25 01:29:24;;;;;;;;;;;;;;;17.10;56.24;96309.34;6298135;28;19967;-70
2023/07/25 01:32:25;;;;;;;;;;;;;;;17.09;56.53;96311.19;6280699;28;19930;-70
2023/07/25 01:35:27;;;;;;;;;;;;;;;17.12;56.90;96318.00;6297862;28;19931;-69
2023/07/25 01:38:31;;;;;;;;;;;;;;;17.17;56.73;96323.72;6297484;28;19924;-70
2023/07/25 01:41:34;;;;;;;;;;;;;;;17.24;56.81;96314.16;6298433;28;19928;-70
2023/07/25 01:44:41;;;;;;;;;;;;;;;17.36;55.55;96318.22;6298481;28;19932;-72
2023/07/25 01:47:46;;;;;;;;;;;;;;;17.44;55.51;96326.25;6298053;28;19924;-71
2023/07/25 01:50:48;;;;;;;;;;;;;;;17.50;56.28;96325.63;6297830;28;20014;-71
2023/07/25 01:53:50;;;;;;;;;;;;;;;17.61;56.49;96321.06;6297959;28;20461;-71
2023/07/25 01:56:54;;;;;;;;;;;;;;;17.70;56.17;96325.41;6297991;28;19932;-70
2023/07/25 01:59:56;;;;;;;;;;;;;;;17.74;55.61;96326.75;6296992;28;19920;-71
2023/07/25 02:02:57;;;;;;;;;;;;;;;17.77;55.58;96331.75;6297952;28;19924;-71
2023/07/25 02:06:01;;;;;;;;;;;;;;;17.76;55.83;96332.78;6297929;28;19924;-71
2023/07/25 02:09:02;;;;;;;;;;;;;;;17.73;55.70;96333.09;6279836;28;19928;-72
2023/07/25 02:12:05;;;;;;;;;;;;;;;17.69;56.25;96334.38;6297264;28;19924;-71
2023/07/25 02:15:06;;;;;;;;;;;;;;;17.68;56.29;96338.88;6297181;28;19924;-71
2023/07/25 02:18:09;;;;;;;;;;;;;;;17.74;56.15;96340.91;6296532;28;19931;-70
2023/07/25 02:21:15;;;;;;;;;;;;;;;17.80;56.20;96336.81;6296972;28;19928;-71
2023/07/25 02:24:21;;;;;;;;;;;;;;;17.86;56.29;96336.19;6297039;28;19924;-71
2023/07/25 02:27:22;;;;;;;;;;;;;;;17.97;56.29;96342.22;6295875;28;20701;-70
2023/07/25 02:30:24;;;;;;;;;;;;;;;18.05;56.85;96339.59;6278472;28;19931;-71
2023/07/25 02:33:25;;;;;;;;;;;;;;;18.21;56.46;96354.84;6278862;28;19954;-70
2023/07/25 02:36:30;;;;;;;;;;;;;;;18.30;55.76;96354.69;6296632;28;19935;-69
2023/07/25 02:39:31;;;;;;;;;;;;;;;18.42;55.95;96357.06;6296374;28;19994;-71
2023/07/25 02:42:37;;;;;;;;;;;;;;;18.54;55.29;96350.44;6296664;28;19925;-71
2023/07/25 02:45:41;;;;;;;;;;;;;;;18.66;55.14;96359.00;6296437;28;19931;-71
2023/07/25 02:48:44;;;;;;;;;;;;;;;18.77;55.37;96356.91;6296909;28;19931;-71
2023/07/25 02:51:47;;;;;;;;;;;;;;;18.88;54.67;96365.56;6296551;28;20318;-71
2023/07/25 02:54:49;;;;;;;;;;;;;;;18.98;54.30;96360.94;6296491;28;19924;-71
2023/07/25 02:57:52;;;;;;;;;;;;;;;19.08;53.89;96361.63;6296531;28;19924;-71
2023/07/25 03:00:54;;;;;;;;;;;;;;;19.17;54.53;96357.94;6296501;28;19927;-71
2023/07/25 03:03:57;;;;;;;;;;;;;;;19.29;53.60;96363.78;6296305;28;20382;-71
2023/07/25 03:07:02;;;;;;;;;;;;;;;19.38;52.54;96360.13;6296300;28;19925;-71
2023/07/25 03:10:06;;;;;;;;;;;;;;;19.49;53.00;96357.13;6278810;28;19924;-71
2023/07/25 03:13:12;;;;;;;;;;;;;;;19.60;52.90;96357.78;6278508;28;19970;-71
2023/07/25 03:16:18;;;;;;;;;;;;;;;19.70;52.87;96356.66;6296024;28;20369;-69
2023/07/25 03:19:19;;;;;;;;;;;;;;;19.84;53.00;96359.59;6295452;28;19924;-71
2023/07/25 03:22:24;;;;;;;;;;;;;;;19.94;52.50;96360.25;6295913;28;19924;-71
2023/07/25 03:25:28;;;;;;;;;;;;;;;20.03;52.26;96345.88;6277921;28;19931;-71
2023/07/25 03:28:32;;;;;;;;;;;;;;;20.12;51.91;96347.50;6295676;28;19925;-71
2023/07/25 03:31:38;;;;;;;;;;;;;;;20.21;51.22;96344.81;6295411;28;19924;-72
2023/07/25 03:34:41;;;;;;;;;;;;;;;20.31;51.13;96345.47;6294754;28;19924;-70
2023/07/25 03:37:47;;;;;;;;;;;;;;;20.37;51.42;96347.44;6295388;28;19932;-71
2023/07/25 03:40:48;;;;;;;;;;;;;;;20.48;50.50;96347.06;6295861;28;20445;-70
2023/07/25 03:43:54;;;;;;;;;;;;;;;20.56;50.51;96339.03;6295474;28;20394;-71
2023/07/25 03:46:58;;;;;;;;;;;;;;;20.66;50.86;96348.66;6295331;28;19925;-71
2023/07/25 03:50:04;;;;;;;;;;;;;;;20.73;50.79;96349.66;6277569;28;20013;-72
2023/07/25 03:53:05;;;;;;;;;;;;;;;20.83;50.45;96350.22;6294390;28;19924;-71
2023/07/25 03:56:07;;;;;;;;;;;;;;;20.93;50.27;96342.84;6295038;28;19947;-71
2023/07/25 03:59:13;;;;;;;;;;;;;;;21.04;49.81;96341.59;6277432;28;20022;-71
2023/07/25 04:02:16;;;;;;;;;;;;;;;21.15;49.74;96341.19;6294468;28;19931;-71
2023/07/25 04:05:21;;;;;;;;;;;;;;;21.26;49.20;96342.63;6294845;28;19924;-71
2023/07/25 04:08:24;;;;;;;;;;;;;;;21.34;49.07;96347.03;6294987;28;19924;-72
2023/07/25 04:11:30;;;;;;;;;;;;;;;21.45;48.73;96350.16;6295082;28;20389;-71
2023/07/25 04:14:34;;;;;;;;;;;;;;;21.56;48.70;96340.88;6294825;28;20023;-71
2023/07/25 04:17:38;;;;;;;;;;;;;;;21.64;48.52;96340.78;6294855;28;19925;-71
2023/07/25 04:20:39;;;;;;;;;;;;;;;21.76;48.13;96346.53;6294275;28;19931;-71
2023/07/25 04:23:43;;;;;;;;;;;;;;;21.89;48.09;96346.75;6294701;28;19924;-72
2023/07/25 04:26:49;;;;;;;;;;;;;;;22.03;47.73;96352.31;6294664;28;20026;-71
2023/07/25 04:29:52;;;;;;;;;;;;;;;22.11;47.62;96349.56;6294920;28;19925;-71
2023/07/25 04:32:58;;;;;;;;;;;;;;;22.23;47.14;96331.19;6294592;28;20416;-71
2023/07/25 04:36:00;;;;;;;;;;;;;;;22.33;47.02;96337.06;6294344;28;19925;-71
2023/07/25 04:39:05;;;;;;;;;;;;;;;22.42;46.71;96342.16;6294167;28;19924;-72
2023/07/25 04:42:06;;;;;;;;;;;;;;;22.72;45.98;96342.09;6293924;28;21230;-71
2023/07/25 04:45:10;;;;;;;;;;;;;;;24.64;42.66;96345.59;6299709;28;20082;-71
2023/07/25 04:48:14;;;;;;;;;;;;;;;28.07;37.27;96353.34;6299601;28;19925;-71
2023/07/25 04:51:17;;;;;;;;;;;;;;;31.04;33.28;96363.78;6281470;28;19924;-72
2023/07/25 04:54:20;;;;;;;;;;;;;;;33.05;28.23;96359.44;6299388;28;19924;-72
2023/07/25 04:57:21;;;;;;;;;;;;;;;34.84;25.39;96371.88;6298871;28;20274;-71
2023/07/25 05:00:25;;;;;;;;;;;;;;;37.23;24.71;96374.19;6298363;28;19943;-71
2023/07/25 05:03:26;;;;;;;;;;;;;;;40.09;23.36;96371.25;6298355;28;19955;-72
2023/07/25 05:06:30;;;;;;;;;;;;;;;42.81;22.09;96378.09;6299168;28;19925;-71
2023/07/25 05:09:32;;;;;;;;;;;;;;;45.23;20.13;96383.09;6298590;28;19998;-72
2023/07/25 05:12:37;;;;;;;;;;;;;;;46.82;19.81;96390.59;6298942;28;19932;-71
2023/07/25 05:15:41;;;;;;;;;;;;;;;48.31;19.17;96393.69;6298809;28;19924;-71
2023/07/25 05:18:47;;;;;;;;;;;;;;;49.42;16.97;96391.78;6299090;28;20344;-71
2023/07/25 05:21:50;;;;;;;;;;;;;;;50.25;14.85;96388.81;6298863;28;19924;-71
2023/07/25 05:24:53;;;;;;;;;;;;;;;51.06;17.34;96382.31;6298699;28;20313;-71
2023/07/25 05:27:57;;;;;;;;;;;;;;;52.28;12.99;96390.47;6280814;28;19924;-71
2023/07/25 05:30:59;;;;;;;;;;;;;;;53.14;15.14;96388.56;6298119;28;19927;-72
2023/07/25 05:34:04;;;;;;;;;;;;;;;53.94;12.86;96381.47;6298251;28;20394;-72
2023/07/25 05:37:08;;;;;;;;;;;;;;;54.33;14.45;96383.63;6298424;28;19924;-71
2023/07/25 05:40:09;;;;;;;;;;;;;;;53.15;12.02;96372.50;6296507;28;19931;-72
2023/07/25 05:43:15;;;;;;;;;;;;;;;52.61;11.43;96371.19;6296159;28;19932;-72
2023/07/25 05:46:18;;;;;;;;;;;;;;;53.67;12.41;96376.09;6296466;28;19932;-72
2023/07/25 05:49:23;;;;;;;;;;;;;;;54.78;11.53;96370.84;6296672;28;20389;-72
2023/07/25 05:52:25;;;;;;;;;;;;;;;55.75;11.55;96362.34;6296078;28;19999;-72
2023/07/25 05:55:29;;;;;;;;;;;;;;;55.63;9.62;96359.94;6296322;28;19925;-72
2023/07/25 05:58:32;;;;;;;;;;;;;;;54.69;9.79;96354.34;6296418;28;19978;-72
2023/07/25 06:01:39;;;;;;;;;;;;;;;54.29;10.31;96364.69;6263087;28;19961;-71
2023/07/25 06:04:43;;;;;;;;;;;;;;;54.24;10.59;96367.88;6295531;28;19932;-72
2023/07/25 06:07:50;;;;;;;;;;;;;;;54.55;10.12;96359.94;6296532;28;19929;-72
2023/07/25 06:10:52;;;;;;;;;;;;;;;55.41;8.20;96360.00;6295661;28;19925;-73
2023/07/25 06:14:00;;;;;;;;;;;;;;;55.62;8.44;96364.00;6279174;28;20015;-72
2023/07/25 06:17:02;;;;;;;;;;;;;;;55.20;8.93;96346.69;6261105;28;19996;-72
2023/07/25 06:20:06;;;;;;;;;;;;;;;55.46;9.10;96345.44;6296406;28;19925;-71
2023/07/25 06:23:08;;;;;;;;;;;;;;;56.62;8.73;96361.50;6303169;28;20008;-71
2023/07/25 06:26:13;;;;;;;;;;;;;;;56.53;8.58;96360.34;6300458;28;20417;-72
2023/07/25 06:29:16;;;;;;;;;;;;;;;56.51;8.89;96352.28;6291987;28;19954;-72
2023/07/25 06:32:21;;;;;;;;;;;;;;;57.32;7.65;96361.38;6312995;28;19924;-72
2023/07/25 06:35:24;;;;;;;;;;;;;;;56.26;7.49;96358.13;6299956;28;19999;-72
2023/07/25 06:38:27;;;;;;;;;;;;;;;55.59;7.74;96343.03;6193937;28;2547903;-72
2023/07/25 06:41:30;;;;;;;;;;;;;;;55.52;7.71;96346.66;6299638;28;20393;-72
2023/07/25 06:44:33;;;;;;;;;;;;;;;54.98;8.18;96340.28;6296517;28;20031;-72
2023/07/25 06:47:36;;;;;;;;;;;;;;;55.81;7.53;96338.91;6279037;28;19924;-72
2023/07/25 06:50:39;;;;;;;;;;;;;;;56.42;7.41;96344.28;6299010;28;20030;-71
2023/07/25 06:53:45;;;;;;;;;;;;;;;57.16;7.50;96349.81;6310850;28;19987;-72
2023/07/25 06:56:48;;;;;;;;;;;;;;;57.43;6.59;96337.81;6327013;28;19904;-72
2023/07/25 06:59:56;;;;;;;;;;;;;;;57.19;7.02;96343.34;6308407;28;19924;-72
2023/07/25 07:03:00;;;;;;;;;;;;;;;57.68;5.96;96332.69;6307786;28;19949;-72
2023/07/25 07:06:04;;;;;;;;;;;;;;;57.19;6.97;96329.19;6284230;28;20475;-73
2023/07/25 07:09:07;;;;;;;;;;;;;;;57.65;6.79;96339.22;6297759;28;20023;-73
2023/07/25 07:12:10;;;;;;;;;;;;;;;57.48;6.29;96338.19;6297747;28;20385;-71
2023/07/25 07:15:15;;;;;;;;;;;;;;;57.37;6.20;96320.50;6295966;28;20019;-71
2023/07/25 07:18:18;;;;;;;;;;;;;;;57.53;6.54;96319.94;6296020;28;20305;-72
2023/07/25 07:21:21;;;;;;;;;;;;;;;58.45;6.49;96325.66;6304063;28;19956;-72
2023/07/25 07:24:25;;;;;;;;;;;;;;;59.57;6.07;96327.41;6325608;28;19935;-72
2023/07/25 07:27:32;;;;;;;;;;;;;;;59.95;6.32;96330.69;6291496;28;19980;-71
2023/07/25 07:30:49;;;;;;;;;;;;;;;60.22;6.02;96327.66;6293864;28;19925;-71
2023/07/25 07:33:53;;;;;;;;;;;;;;;59.03;6.18;96329.19;6305781;28;19955;-72
2023/07/25 07:36:55;;;;;;;;;;;;;;;57.83;5.66;96324.06;6290980;28;19946;-72
2023/07/25 07:39:59;;;;;;;;;;;;;;;56.45;6.51;96309.53;6308013;28;19931;-72
2023/07/25 07:43:02;;;;;;;;;;;;;;;56.94;6.72;96311.63;6295488;28;19925;-72
2023/07/25 07:46:06;;;;;;;;;;;;;;;58.50;5.63;96313.84;6300071;28;19995;-72
2023/07/25 07:49:10;;;;;;;;;;;;;;;59.32;6.08;96320.19;6306282;28;20015;-72
2023/07/25 07:52:18;;;;;;;;;;;;;;;59.67;5.50;96309.34;6291113;28;19924;-72
2023/07/25 07:55:22;;;;;;;;;;;;;;;59.15;5.61;96324.13;6306465;28;19911;-72
2023/07/25 07:58:32;;;;;;;;;;;;;;;56.21;6.42;96290.75;6293123;28;19928;-73
2023/07/25 08:01:34;;;;;;;;;;;;;;;55.72;7.30;96295.41;6294794;28;19924;-72
2023/07/25 08:04:38;;;;;;;;;;;;;;;56.32;6.46;96302.00;6276584;28;19931;-71
2023/07/25 08:07:41;;;;;;;;;;;;;;;57.64;6.35;96295.13;6295193;28;19924;-72
2023/07/25 08:10:44;;;;;;;;;;;;;;;58.62;5.71;96299.06;6309973;28;19996;-72
2023/07/25 08:13:47;;;;;;;;;;;;;;;58.89;5.43;96301.03;6287267;28;19928;-72
2023/07/25 08:16:50;;;;;;;;;;;;;;;58.69;5.22;96300.19;6297064;28;19924;-71
2023/07/25 08:19:53;;;;;;;;;;;;;;;58.10;5.91;96299.44;6298944;28;20007;-71
2023/07/25 08:22:56;;;;;;;;;;;;;;;57.83;5.64;96293.72;6294772;28;19924;-71
2023/07/25 08:26:00;;;;;;;;;;;;;;;57.45;5.44;96290.91;6294636;28;19924;-73
2023/07/25 08:29:02;;;;;;;;;;;;;;;57.79;5.97;96290.94;6276419;28;19924;-71
2023/07/25 08:32:06;;;;;;;;;;;;;;;57.74;5.76;96284.91;6276627;28;19931;-74
2023/07/25 08:35:10;;;;;;;;;;;;;;;58.18;5.98;96288.78;6277056;28;19930;-71
2023/07/25 08:38:14;;;;;;;;;;;;;;;57.76;5.58;96266.31;6294462;28;20381;-71
2023/07/25 08:41:17;;;;;;;;;;;;;;;56.18;5.86;96266.16;6276660;28;19950;-72
2023/07/25 08:44:21;;;;;;;;;;;;;;;55.50;6.23;96256.00;6294467;28;19924;-73
2023/07/25 08:47:27;;;;;;;;;;;;;;;56.57;6.00;96253.78;6294365;28;19925;-72
2023/07/25 08:50:32;;;;;;;;;;;;;;;55.66;6.33;96251.91;6294557;28;19931;-73
2023/07/25 08:53:41;;;;;;;;;;;;;;;53.65;7.54;96254.69;6276825;28;19950;-72
2023/07/25 08:56:44;;;;;;;;;;;;;;;54.03;7.13;96247.63;6294497;28;19924;-72
2023/07/25 08:59:50;;;;;;;;;;;;;;;53.03;7.51;96243.53;6294279;28;20469;-72
2023/07/25 09:02:54;;;;;;;;;;;;;;;52.24;7.95;96226.03;6294299;28;19930;-72
2023/07/25 09:05:58;;;;;;;;;;;;;;;53.33;7.56;96238.50;6293941;28;20408;-72
2023/07/25 09:09:04;;;;;;;;;;;;;;;54.13;7.24;96246.00;6276242;28;19932;-73
2023/07/25 09:12:07;;;;;;;;;;;;;;;55.27;6.65;96247.19;6293768;28;20027;-73
2023/07/25 09:15:10;;;;;;;;;;;;;;;54.52;7.50;96236.00;6293962;28;20019;-72
2023/07/25 09:18:14;;;;;;;;;;;;;;;52.02;8.36;96234.25;6293875;28;19986;-73
2023/07/25 09:21:16;;;;;;;;;;;;;;;51.05;8.75;96229.41;6293761;28;19931;-72
2023/07/25 09:24:19;;;;;;;;;;;;;;;51.67;8.68;96231.03;6293706;28;19946;-72
2023/07/25 09:27:22;;;;;;;;;;;;;;;49.52;9.62;96222.69;6293811;28;19928;-72
2023/07/25 09:30:26;;;;;;;;;;;;;;;46.08;11.28;96195.69;6297253;28;20015;-72
2023/07/25 09:33:29;;;;;;;;;;;;;;;44.66;12.16;96205.88;6298038;28;19928;-73
2023/07/25 09:36:31;;;;;;;;;;;;;;;43.88;12.49;96201.44;6298208;28;19929;-72
2023/07/25 09:39:34;;;;;;;;;;;;;;;41.72;14.00;96198.72;6297276;28;19925;-74
2023/07/25 09:42:41;;;;;;;;;;;;;;;40.16;14.87;96194.47;6298195;28;19924;-73
2023/07/25 09:45:45;;;;;;;;;;;;;;;42.45;13.49;96200.41;6297867;28;19924;-73
2023/07/25 09:48:51;;;;;;;;;;;;;;;44.43;12.33;96205.38;6297891;28;20316;-73
2023/07/25 09:51:59;;;;;;;;;;;;;;;45.58;11.49;96193.94;6298003;28;19928;-72
2023/07/25 09:55:01;;;;;;;;;;;;;;;43.77;12.44;96194.63;6296831;28;19925;-73
2023/07/25 09:58:05;;;;;;;;;;;;;;;43.36;12.99;96182.13;6297471;28;19928;-73
2023/07/25 10:01:10;;;;;;;;;;;;;;;42.41;13.57;96182.81;6297846;28;19924;-72
2023/07/25 10:04:16;;;;;;;;;;;;;;;42.15;13.88;96170.53;6297820;28;19928;-73
2023/07/25 10:07:23;;;;;;;;;;;;;;;43.62;12.49;96177.38;6297706;28;19950;-74
2023/07/25 10:10:28;;;;;;;;;;;;;;;45.40;11.83;96171.84;6297730;28;19933;-74
2023/07/25 10:13:34;;;;;;;;;;;;;;;46.44;11.01;96174.66;6297698;28;19924;-72
2023/07/25 10:16:38;;;;;;;;;;;;;;;47.85;10.28;96175.66;6296536;28;19932;-72
2023/07/25 10:19:46;;;;;;;;;;;;;;;48.70;10.12;96187.38;6296781;28;19932;-73
2023/07/25 10:22:50;;;;;;;;;;;;;;;48.39;10.03;96183.41;6296415;28;20022;-72
2023/07/25 10:25:53;;;;;;;;;;;;;;;48.67;10.20;96180.53;6296149;28;19924;-71
2023/07/25 10:28:57;;;;;;;;;;;;;;;48.60;9.98;96177.56;6294981;28;19924;-72
2023/07/25 10:32:02;;;;;;;;;;;;;;;48.04;10.25;96181.31;6297008;28;19928;-72
2023/07/25 10:35:05;;;;;;;;;;;;;;;47.16;10.99;96174.91;6296824;28;19929;-73
2023/07/25 10:38:10;;;;;;;;;;;;;;;45.53;11.89;96169.97;6296700;28;19920;-72
2023/07/25 10:41:16;;;;;;;;;;;;;;;44.11;12.88;96166.81;6294816;28;19924;-73
2023/07/25 10:44:52;;;;;;;;;;;;;;;42.68;13.62;96149.34;6296129;28;20455;-72
2023/07/25 10:47:59;;;;;;;;;;;;;;;44.02;12.51;96163.25;6253590;28;20424;-74
2023/07/25 10:51:06;;;;;;;;;;;;;;;44.41;12.62;96154.94;6296619;28;19924;-73
2023/07/25 10:54:12;;;;;;;;;;;;;;;43.86;12.48;96164.94;6296478;28;19924;-73
2023/07/25 10:57:22;;;;;;;;;;;;;;;43.41;12.55;96165.34;6295624;28;20014;-71
2023/07/25 11:00:34;;;;;;;;;;;;;;;43.49;12.85;96156.22;6296172;28;20443;-73
2023/07/25 11:03:41;;;;;;;;;;;;;;;43.80;12.38;96155.19;6296262;28;19959;-73
2023/07/25 11:06:42;;;;;;;;;;;;;;;44.53;11.94;96150.31;6296103;28;20345;-72
2023/07/25 11:09:43;;;;;;;;;;;;;;;44.84;11.73;96143.56;6295083;28;19931;-73
2023/07/25 11:12:48;;;;;;;;;;;;;;;44.40;11.80;96148.59;6295605;28;19979;-72
2023/07/25 11:15:49;;;;;;;;;;;;;;;44.43;11.88;96147.94;6295140;28;20077;-73
2023/07/25 11:18:52;;;;;;;;;;;;;;;44.50;11.72;96145.41;6295950;28;19924;-73
2023/07/25 11:21:56;;;;;;;;;;;;;;;43.88;12.02;96146.00;6294699;28;19935;-75
2023/07/25 11:25:05;;;;;;;;;;;;;;;43.12;12.37;96146.63;6295119;28;19924;-73
2023/07/25 11:28:10;;;;;;;;;;;;;;;42.99;13.09;96142.91;6295160;28;19924;-73
2023/07/25 11:31:18;;;;;;;;;;;;;;;42.88;13.07;96141.59;6294689;28;19924;-73
2023/07/25 11:34:21;;;;;;;;;;;;;;;43.08;12.62;96140.94;6276501;28;19931;-73
2023/07/25 11:37:25;;;;;;;;;;;;;;;43.37;12.40;96131.13;6277976;28;19924;-72
2023/07/25 11:40:28;;;;;;;;;;;;;;;43.28;12.69;96139.47;6294712;28;19931;-72
2023/07/25 11:43:30;;;;;;;;;;;;;;;43.34;12.52;96145.66;6295007;28;19932;-73
2023/07/25 11:46:34;;;;;;;;;;;;;;;43.37;12.55;96136.69;6295386;28;19924;-73
2023/07/25 11:49:36;;;;;;;;;;;;;;;42.87;12.53;96132.47;6294321;28;19928;-72
2023/07/25 11:52:40;;;;;;;;;;;;;;;42.20;13.56;96133.63;6294831;28;19932;-73
2023/07/25 11:55:44;;;;;;;;;;;;;;;41.79;13.68;96131.19;6295110;28;20429;-72
2023/07/25 11:58:51;;;;;;;;;;;;;;;41.50;13.70;96126.97;6295009;28;19932;-72
2023/07/25 12:02:04;;;;;;;;;;;;;;;41.92;13.51;96128.31;6294848;28;20385;-73
2023/07/25 12:05:07;;;;;;;;;;;;;;;42.11;13.47;96124.50;6294872;28;19925;-72
2023/07/25 12:08:09;;;;;;;;;;;;;;;41.92;13.76;96125.56;6276497;28;20414;-73
2023/07/25 12:11:11;;;;;;;;;;;;;;;40.44;14.27;96112.63;6293742;28;20297;-72
2023/07/25 12:14:14;;;;;;;;;;;;;;;38.57;15.66;96116.47;6294783;28;19924;-73
2023/07/25 12:17:20;;;;;;;;;;;;;;;37.17;16.82;96111.97;6294872;28;19924;-73
2023/07/25 12:20:24;;;;;;;;;;;;;;;36.90;17.15;96118.75;6294702;28;19931;-72
2023/07/25 12:23:28;;;;;;;;;;;;;;;36.04;17.63;96112.63;6294042;28;20347;-73
2023/07/25 12:26:51;;;;;;;;;;;;;;;35.17;18.05;96121.03;6294663;28;19924;-72
2023/07/25 12:29:55;;;;;;;;;;;;;;;34.42;18.93;96123.34;6294412;28;19924;-73
2023/07/25 12:32:58;;;;;;;;;;;;;;;33.75;19.57;96114.88;6294568;28;19925;-73
2023/07/25 12:36:01;;;;;;;;;;;;;;;33.36;19.70;96108.91;6293679;28;19931;-72
2023/07/25 12:39:05;;;;;;;;;;;;;;;33.31;20.01;96108.88;6276449;28;19928;-73
2023/07/25 12:42:08;;;;;;;;;;;;;;;33.84;19.43;96098.00;6294101;28;19924;-73
2023/07/25 12:45:10;;;;;;;;;;;;;;;33.86;19.48;96107.56;6294075;28;19968;-73
2023/07/25 12:48:16;;;;;;;;;;;;;;;33.54;19.92;96092.13;6293942;28;19925;-74
2023/07/25 12:51:20;;;;;;;;;;;;;;;33.15;21.53;96093.47;6275461;28;20025;-73
2023/07/25 12:54:23;;;;;;;;;;;;;;;32.58;22.48;96093.00;6293531;28;20066;-74
2023/07/25 12:57:29;;;;;;;;;;;;;;;32.22;22.73;96088.25;6276475;28;20315;-74
2023/07/25 13:00:30;;;;;;;;;;;;;;;31.91;22.75;96088.72;6294286;28;19924;-72
2023/07/25 13:03:36;;;;;;;;;;;;;;;31.85;23.17;96083.41;6294648;28;19924;-73
2023/07/25 13:06:37;;;;;;;;;;;;;;;32.14;22.57;96087.63;6298336;28;20426;-73
2023/07/25 13:09:39;;;;;;;;;;;;;;;32.64;21.72;96091.97;6281027;28;20497;-74
2023/07/25 13:12:43;;;;;;;;;;;;;;;32.92;21.94;96086.47;6299048;28;19924;-73
2023/07/25 13:15:49;;;;;;;;;;;;;;;32.97;21.70;96095.50;6298896;28;19928;-73
2023/07/25 13:18:52;;;;;;;;;;;;;;;32.86;21.97;96091.88;6297974;28;19930;-73
2023/07/25 13:21:56;;;;;;;;;;;;;;;32.91;21.94;96091.09;6298428;28;19924;-72
2023/07/25 13:25:02;;;;;;;;;;;;;;;32.90;21.78;96094.09;6298313;28;20399;-73
2023/07/25 13:28:07;;;;;;;;;;;;;;;32.75;21.66;96092.88;6280363;28;20035;-72
2023/07/25 13:31:10;;;;;;;;;;;;;;;32.58;22.19;96093.00;6298206;28;19924;-73
2023/07/25 13:34:12;;;;;;;;;;;;;;;31.98;22.71;96093.97;6298147;28;19931;-72
2023/07/25 13:37:16;;;;;;;;;;;;;;;31.54;23.49;96099.38;6298308;28;19924;-74
2023/07/25 13:40:17;;;;;;;;;;;;;;;31.30;23.86;96094.09;6297922;28;19924;-73
2023/07/25 13:43:22;;;;;;;;;;;;;;;31.04;23.77;96100.22;6280428;28;20394;-73
2023/07/25 13:46:25;;;;;;;;;;;;;;;30.74;24.82;96095.91;6297923;28;20329;-72
2023/07/25 13:49:27;;;;;;;;;;;;;;;30.52;24.80;96103.16;6297363;28;19924;-72
2023/07/25 13:52:30;;;;;;;;;;;;;;;30.53;24.60;96099.34;6297853;28;19924;-72
2023/07/25 13:55:31;;;;;;;;;;;;;;;30.46;24.67;96101.38;6297727;28;20353;-73
2023/07/25 13:58:35;;;;;;;;;;;;;;;30.51;24.97;96096.88;6297491;28;19924;-72
2023/07/25 14:01:36;;;;;;;;;;;;;;;30.68;23.98;96096.91;6279348;28;19928;-71
2023/07/25 14:04:39;;;;;;;;;;;;;;;30.76;25.30;96098.38;6296733;28;19924;-73
2023/07/25 14:07:45;;;;;;;;;;;;;;;30.69;24.70;96104.00;6297557;28;19925;-72
2023/07/25 14:10:47;;;;;;;;;;;;;;;30.67;24.82;96095.25;6297309;28;20018;-72
2023/07/25 14:13:48;;;;;;;;;;;;;;;30.72;24.60;96098.06;6296392;28;20393;-73
2023/07/25 14:16:49;;;;;;;;;;;;;;;31.00;24.52;96101.81;6297073;28;19925;-72
2023/07/25 14:19:50;;;;;;;;;;;;;;;31.16;25.32;96100.97;6297335;28;20071;-72
2023/07/25 14:22:54;;;;;;;;;;;;;;;31.22;25.55;96102.66;6297282;28;19921;-72
2023/07/25 14:25:58;;;;;;;;;;;;;;;31.21;25.33;96105.66;6296006;28;19947;-73
2023/07/25 14:29:05;;;;;;;;;;;;;;;31.30;24.99;96107.69;6297105;28;20382;-73
2023/07/25 14:32:06;;;;;;;;;;;;;;;31.30;25.05;96115.84;6296332;28;19924;-72
2023/07/25 14:35:08;;;;;;;;;;;;;;;31.01;25.57;96111.59;6296801;28;20250;-73
2023/07/25 14:38:13;;;;;;;;;;;;;;;30.60;25.85;96119.00;6296511;28;19924;-73
2023/07/25 14:41:17;;;;;;;;;;;;;;;29.96;26.54;96114.53;6295853;28;19946;-74
2023/07/25 14:44:21;;;;;;;;;;;;;;;29.68;26.96;96119.94;6296666;28;19925;-75
2023/07/25 14:47:27;;;;;;;;;;;;;;;29.53;27.30;96115.78;6296474;28;19924;-76
2023/07/25 14:50:28;;;;;;;;;;;;;;;29.34;27.54;96108.84;6294921;28;19987;-73
2023/07/25 14:53:31;;;;;;;;;;;;;;;29.23;27.55;96106.97;6296369;28;19925;-73
2023/07/25 14:56:35;;;;;;;;;;;;;;;29.34;28.09;96110.75;6296342;28;19928;-71
2023/07/25 14:59:36;;;;;;;;;;;;;;;29.22;28.24;96106.16;6295524;28;19924;-72
2023/07/25 15:02:40;;;;;;;;;;;;;;;29.13;28.27;96106.72;6278300;28;19959;-72
2023/07/25 15:05:44;;;;;;;;;;;;;;;29.00;28.99;96108.56;6296122;28;19925;-72
2023/07/25 15:08:46;;;;;;;;;;;;;;;28.75;29.40;96110.66;6295911;28;19924;-73
2023/07/25 15:11:50;;;;;;;;;;;;;;;28.43;29.48;96113.66;6295517;28;20402;-72
2023/07/25 15:14:57;;;;;;;;;;;;;;;28.34;29.79;96117.72;6295629;28;20091;-73
2023/07/25 15:18:00;;;;;;;;;;;;;;;28.11;29.93;96116.56;6295244;28;19931;-72
2023/07/25 15:21:04;;;;;;;;;;;;;;;27.99;30.31;96107.56;6295382;28;19925;-72
2023/07/25 15:24:10;;;;;;;;;;;;;;;27.77;30.34;96110.72;6295470;28;20310;-72
2023/07/25 15:27:17;;;;;;;;;;;;;;;27.62;30.28;96112.16;6295083;28;19928;-72
2023/07/25 15:30:18;;;;;;;;;;;;;;;27.41;30.68;96116.13;6295038;28;19924;-73
2023/07/25 15:33:22;;;;;;;;;;;;;;;27.32;30.36;96110.19;6295492;28;19924;-74
2023/07/25 15:36:23;;;;;;;;;;;;;;;27.29;30.57;96114.16;6294646;28;20023;-73
2023/07/25 15:39:30;;;;;;;;;;;;;;;27.18;30.87;96105.97;6295086;28;19981;-72
2023/07/25 15:42:33;;;;;;;;;;;;;;;27.07;31.01;96104.78;6294076;28;20045;-73
2023/07/25 15:45:37;;;;;;;;;;;;;;;26.95;30.87;96111.94;6275818;28;20321;-72
2023/07/25 15:48:40;;;;;;;;;;;;;;;26.88;31.41;96107.44;6295069;28;19924;-72
2023/07/25 15:51:42;;;;;;;;;;;;;;;26.72;31.63;96107.97;6294700;28;19975;-73
2023/07/25 15:54:48;;;;;;;;;;;;;;;26.58;31.89;96111.81;6295090;28;19931;-72
2023/07/25 15:57:51;;;;;;;;;;;;;;;26.46;32.21;96118.94;6294327;28;20313;-73